createdAt,value
2019-02-22T00:03:21.584Z,9.20
2019-02-22T00:07:27.020Z,9.20
2019-02-22T00:11:32.697Z,9.10
2019-02-22T00:15:38.164Z,9.10
2019-02-22T00:19:43.587Z,9.20
2019-02-22T00:23:48.949Z,9.10
2019-02-22T00:27:54.389Z,9.20
2019-02-22T00:31:59.831Z,9.10
2019-02-22T00:36:05.165Z,9.10
2019-02-22T00:40:10.608Z,9.10
2019-02-22T00:44:16.018Z,9.10
2019-02-22T00:48:21.382Z,9.10
2019-02-22T00:52:26.911Z,9.10
2019-02-22T00:56:32.339Z,9.10
2019-02-22T01:00:37.794Z,9.10
2019-02-22T01:04:43.229Z,9.10
2019-02-22T01:08:48.637Z,9.10
2019-02-22T01:12:53.979Z,9.10
2019-02-22T01:16:59.517Z,9.10
2019-02-22T01:21:04.849Z,9.10
2019-02-22T01:25:10.233Z,9.10
2019-02-22T01:29:15.656Z,9.10
2019-02-22T01:33:20.986Z,9.10
2019-02-22T01:37:26.407Z,9.10
2019-02-22T01:41:32.070Z,9.10
2019-02-22T01:45:37.650Z,9.10
2019-02-22T01:49:43.065Z,9.10
2019-02-22T01:53:48.515Z,9.00
2019-02-22T01:57:53.986Z,9.10
2019-02-22T02:01:59.328Z,9.00
2019-02-22T02:06:04.762Z,9.00
2019-02-22T02:10:10.550Z,9.00
2019-02-22T02:14:15.886Z,9.00
2019-02-22T02:18:21.418Z,9.00
2019-02-22T02:22:27.167Z,9.00
2019-02-22T02:26:32.619Z,9.00
2019-02-22T02:30:38.368Z,9.00
2019-02-22T02:34:43.590Z,9.00
2019-02-22T02:38:48.950Z,9.00
2019-02-22T02:42:54.388Z,9.00
2019-02-22T02:46:59.812Z,9.00
2019-02-22T02:51:05.171Z,9.00
2019-02-22T02:55:34.319Z,8.90
2019-02-22T02:59:39.934Z,8.90
2019-02-22T03:03:45.366Z,8.90
2019-02-22T03:07:50.664Z,8.90
2019-02-22T03:11:56.075Z,8.90
2019-02-22T03:16:01.478Z,9.00
2019-02-22T03:20:07.274Z,8.90
2019-02-22T03:24:12.990Z,8.90
2019-02-22T03:28:18.410Z,9.00
2019-02-22T03:32:24.110Z,8.90
2019-02-22T03:36:29.884Z,8.90
2019-02-22T03:40:35.836Z,8.90
2019-02-22T03:44:41.196Z,8.90
2019-02-22T03:48:46.822Z,8.90
2019-02-22T03:52:55.324Z,8.90
2019-02-22T03:57:00.791Z,8.90
2019-02-22T04:01:06.223Z,8.90
2019-02-22T04:05:11.667Z,8.90
2019-02-22T04:09:16.895Z,8.90
2019-02-22T04:13:22.312Z,8.90
2019-02-22T04:17:27.738Z,8.90
2019-02-22T04:21:33.435Z,8.90
2019-02-22T04:25:38.695Z,8.90
2019-02-22T04:29:44.178Z,8.90
2019-02-22T04:33:49.525Z,8.80
2019-02-22T04:37:54.987Z,8.80
2019-02-22T04:42:00.296Z,8.80
2019-02-22T04:46:05.824Z,8.80
2019-02-22T04:50:11.256Z,8.80
2019-02-22T04:54:16.600Z,8.80
2019-02-22T04:58:22.413Z,8.80
2019-02-22T05:02:27.915Z,8.80
2019-02-22T05:06:33.378Z,8.80
2019-02-22T05:10:38.741Z,8.80
2019-02-22T05:14:44.228Z,8.70
2019-02-22T05:18:49.957Z,8.70
2019-02-22T05:23:03.789Z,8.70
2019-02-22T05:27:02.884Z,8.70
2019-02-22T05:31:08.654Z,8.70
2019-02-22T05:35:14.089Z,8.70
2019-02-22T05:39:19.693Z,8.70
2019-02-22T05:43:25.149Z,8.70
2019-02-22T05:47:30.602Z,8.70
2019-02-22T05:51:36.047Z,8.60
2019-02-22T05:55:44.087Z,8.70
2019-02-22T05:59:49.431Z,8.70
2019-02-22T06:03:55.056Z,8.70
2019-02-22T06:08:00.527Z,8.60
2019-02-22T06:12:05.950Z,8.60
2019-02-22T06:16:11.490Z,8.60
2019-02-22T06:20:17.225Z,8.60
2019-02-22T06:24:22.737Z,8.60
2019-02-22T06:28:28.221Z,8.60
2019-02-22T06:32:33.594Z,8.60
2019-02-22T06:36:38.828Z,8.60
2019-02-22T06:40:47.215Z,8.60
2019-02-22T06:44:51.741Z,8.60
2019-02-22T06:48:57.464Z,8.60
2019-02-22T06:53:02.889Z,8.60
2019-02-22T06:57:08.344Z,8.70
2019-02-22T07:01:13.963Z,8.60
2019-02-22T07:05:19.726Z,8.60
2019-02-22T07:09:25.469Z,8.60
2019-02-22T07:13:30.772Z,8.70
2019-02-22T07:17:36.225Z,8.70
2019-02-22T07:21:52.142Z,8.70
2019-02-22T07:25:48.819Z,8.70
2019-02-22T07:29:54.339Z,8.70
2019-02-22T07:33:59.960Z,8.70
2019-02-22T07:38:05.612Z,8.80
2019-02-22T07:42:11.155Z,8.70
2019-02-22T07:46:17.053Z,8.70
2019-02-22T07:50:22.505Z,8.70
2019-02-22T07:54:27.938Z,8.70
2019-02-22T07:58:33.491Z,8.70
2019-02-22T08:02:38.944Z,8.70
2019-02-22T08:06:44.290Z,8.80
2019-02-22T08:10:49.687Z,8.80
2019-02-22T08:14:55.241Z,8.80
2019-02-22T08:19:01.939Z,8.80
2019-02-22T08:23:07.746Z,8.80
2019-02-22T08:27:13.441Z,8.90
2019-02-22T08:31:18.880Z,8.90
2019-02-22T08:35:24.347Z,8.90
2019-02-22T08:39:29.877Z,8.90
2019-02-22T08:43:35.284Z,8.90
2019-02-22T08:47:40.707Z,9.00
2019-02-22T08:51:46.171Z,9.00
2019-02-22T08:55:51.799Z,9.00
2019-02-22T08:59:57.265Z,9.00
2019-02-22T09:04:02.775Z,9.10
2019-02-22T09:08:08.227Z,9.20
2019-02-22T09:12:13.707Z,9.20
2019-02-22T09:16:19.173Z,9.20
2019-02-22T09:20:24.883Z,9.20
2019-02-22T09:24:30.311Z,9.30
2019-02-22T09:28:35.758Z,9.30
2019-02-22T09:32:41.391Z,9.40
2019-02-22T09:36:47.227Z,9.40
2019-02-22T09:40:52.910Z,9.40
2019-02-22T09:44:58.780Z,9.50
2019-02-22T09:49:04.296Z,9.50
2019-02-22T09:53:09.783Z,9.60
2019-02-22T09:57:15.346Z,9.70
2019-02-22T10:01:21.186Z,9.80
2019-02-22T10:05:26.628Z,9.80
2019-02-22T10:09:32.646Z,10.00
2019-02-22T10:13:38.117Z,10.00
2019-02-22T10:17:43.687Z,10.00
2019-02-22T10:21:49.171Z,10.00
2019-02-22T10:25:55.031Z,10.20
2019-02-22T10:30:01.330Z,10.30
2019-02-22T10:34:06.863Z,10.70
2019-02-22T10:38:12.340Z,10.90
2019-02-22T10:42:17.704Z,11.10
2019-02-22T10:46:23.256Z,11.30
2019-02-22T10:50:28.733Z,11.80
2019-02-22T10:54:34.205Z,12.00
2019-02-22T10:58:39.593Z,11.70
2019-02-22T11:02:45.285Z,11.80
2019-02-22T11:06:50.827Z,12.40
2019-02-22T11:10:56.328Z,12.40
2019-02-22T11:15:01.701Z,12.00
2019-02-22T11:19:07.234Z,12.00
2019-02-22T11:23:13.022Z,12.10
2019-02-22T11:27:18.380Z,11.90
2019-02-22T11:31:24.144Z,11.60
2019-02-22T11:35:29.509Z,11.30
2019-02-22T11:39:35.021Z,11.30
2019-02-22T11:43:40.306Z,11.30
2019-02-22T11:47:45.670Z,11.40
2019-02-22T11:51:51.022Z,11.60
2019-02-22T11:55:57.103Z,11.60
2019-02-22T12:00:02.496Z,11.50
2019-02-22T12:04:08.239Z,11.50
2019-02-22T12:08:13.700Z,11.60
2019-02-22T12:12:19.111Z,12.00
2019-02-22T12:16:24.527Z,12.30
2019-02-22T12:20:30.316Z,12.00
2019-02-22T12:24:35.749Z,12.40
2019-02-22T12:28:41.029Z,12.50
2019-02-22T12:32:47.149Z,11.80
2019-02-22T12:36:52.352Z,11.90
2019-02-22T12:40:58.237Z,12.20
2019-02-22T12:45:04.029Z,12.50
2019-02-22T12:49:11.007Z,12.50
2019-02-22T12:53:16.570Z,12.30
2019-02-22T12:57:22.312Z,12.90
2019-02-22T13:01:27.779Z,12.70
2019-02-22T13:05:33.582Z,12.60
2019-02-22T13:09:38.901Z,12.50
2019-02-22T13:13:44.246Z,12.40
2019-02-22T13:17:49.669Z,12.60
2019-02-22T13:21:55.135Z,12.50
2019-02-22T13:26:00.470Z,13.10
2019-02-22T13:30:07.053Z,13.30
2019-02-22T13:34:12.468Z,13.50
2019-02-22T13:38:18.231Z,14.00
2019-02-22T13:42:23.941Z,14.40
2019-02-22T13:46:29.411Z,14.10
2019-02-22T13:50:35.103Z,14.40
2019-02-22T13:54:44.131Z,14.00
2019-02-22T13:58:48.364Z,14.20
2019-02-22T14:02:53.722Z,14.70
2019-02-22T14:06:59.233Z,14.90
2019-02-22T14:11:04.596Z,14.50
2019-02-22T14:15:10.073Z,14.20
2019-02-22T14:19:15.427Z,14.30
2019-02-22T14:23:20.896Z,14.10
2019-02-22T14:27:26.688Z,14.20
2019-02-22T14:31:32.175Z,13.90
2019-02-22T14:35:37.602Z,13.80
2019-02-22T14:39:42.928Z,13.60
2019-02-22T14:43:48.373Z,13.60
2019-02-22T14:47:53.772Z,13.60
2019-02-22T14:51:59.231Z,13.70
2019-02-22T14:56:04.656Z,13.90
2019-02-22T15:00:15.540Z,14.10
2019-02-22T15:04:20.866Z,14.10
2019-02-22T15:08:26.663Z,14.00
2019-02-22T15:12:32.025Z,13.70
2019-02-22T15:16:57.310Z,13.50
2019-02-22T15:21:02.742Z,13.40
2019-02-22T15:25:10.236Z,13.30
2019-02-22T15:29:16.032Z,13.20
2019-02-22T15:33:24.312Z,13.20
2019-02-22T15:37:29.701Z,13.30
2019-02-22T15:41:35.141Z,13.10
2019-02-22T15:45:40.590Z,13.00
2019-02-22T15:49:48.503Z,12.80
2019-02-22T15:53:53.422Z,12.90
2019-02-22T15:57:58.870Z,12.70
2019-02-22T16:02:04.227Z,12.80
2019-02-22T16:06:09.707Z,12.70
2019-02-22T16:10:15.569Z,12.80
2019-02-22T16:14:20.975Z,12.90
2019-02-22T16:18:26.338Z,12.80
2019-02-22T16:22:31.794Z,12.80
2019-02-22T16:26:37.003Z,12.90
2019-02-22T16:30:42.514Z,12.80
2019-02-22T16:34:48.015Z,12.60
2019-02-22T16:38:53.539Z,12.50
2019-02-22T16:42:59.232Z,12.40
2019-02-22T16:47:04.592Z,12.20
2019-02-22T16:51:10.072Z,12.10
2019-02-22T16:55:16.175Z,11.90
2019-02-22T16:59:21.713Z,11.70
2019-02-22T17:03:27.313Z,11.40
2019-02-22T17:07:32.662Z,11.20
2019-02-22T17:11:38.008Z,11.10
2019-02-22T17:15:43.998Z,10.70
2019-02-22T17:19:49.607Z,10.60
2019-02-22T17:23:55.008Z,10.50
2019-02-22T17:28:00.575Z,10.30
2019-02-22T17:32:06.021Z,10.20
2019-02-22T17:36:11.370Z,10.00
2019-02-22T17:40:16.699Z,10.20
2019-02-22T17:44:22.206Z,10.20
2019-02-22T17:48:27.568Z,10.30
2019-02-22T17:52:33.111Z,10.40
2019-02-22T17:56:38.841Z,10.50
2019-02-22T18:00:44.195Z,10.50
2019-02-22T18:04:49.808Z,10.50
2019-02-22T18:08:55.561Z,10.50
2019-02-22T18:13:01.198Z,10.20
2019-02-22T18:17:08.713Z,10.20
2019-02-22T18:21:13.750Z,10.10
2019-02-22T18:25:19.232Z,10.10
2019-02-22T18:29:35.088Z,10.00
2019-02-22T18:33:34.160Z,9.70
2019-02-22T18:37:39.909Z,9.70
2019-02-22T18:41:45.256Z,9.70
2019-02-22T18:45:50.538Z,9.70
2019-02-22T18:49:55.950Z,9.70
2019-02-22T18:54:01.235Z,9.80
2019-02-22T18:58:06.557Z,9.70
2019-02-22T19:02:12.340Z,9.70
2019-02-22T19:06:17.732Z,9.70
2019-02-22T19:10:23.300Z,9.70
2019-02-22T19:14:28.606Z,9.50
2019-02-22T19:18:35.899Z,9.40
2019-02-22T19:22:41.969Z,9.20
2019-02-22T19:26:47.451Z,9.20
2019-02-22T19:30:53.270Z,8.90
2019-02-22T19:34:59.078Z,8.70
2019-02-22T19:39:05.460Z,8.60
2019-02-22T19:43:11.281Z,8.50
2019-02-22T19:47:16.768Z,8.30
2019-02-22T19:51:22.073Z,8.40
2019-02-22T19:55:27.624Z,8.50
2019-02-22T19:59:33.620Z,8.40
2019-02-22T20:03:39.128Z,8.50
2019-02-22T20:07:44.701Z,8.60
2019-02-22T20:11:50.066Z,8.60
2019-02-22T20:15:55.800Z,8.60
2019-02-22T20:20:01.371Z,8.50
2019-02-22T20:24:06.802Z,8.60
2019-02-22T20:28:12.979Z,8.50
2019-02-22T20:32:18.186Z,8.60
2019-02-22T20:36:28.349Z,8.60
2019-02-22T20:40:30.746Z,8.60
2019-02-22T20:44:36.211Z,8.60
2019-02-22T20:48:42.343Z,8.70
2019-02-22T20:52:48.066Z,8.70
2019-02-22T20:56:53.471Z,8.60
2019-02-22T21:00:59.005Z,8.70
2019-02-22T21:05:04.444Z,8.70
2019-02-22T21:09:09.927Z,8.60
2019-02-22T21:13:15.306Z,8.60
2019-02-22T21:17:20.810Z,8.50
2019-02-22T21:21:26.268Z,8.30
2019-02-22T21:25:31.802Z,8.20
2019-02-22T21:29:39.186Z,8.10
2019-02-22T21:33:44.865Z,8.10
2019-02-22T21:37:50.598Z,8.10
2019-02-22T21:41:56.394Z,8.20
2019-02-22T21:46:02.184Z,8.10
2019-02-22T21:50:09.749Z,8.20
2019-02-22T21:54:15.265Z,8.00
2019-02-22T21:58:20.948Z,7.90
2019-02-22T22:02:26.461Z,7.90
2019-02-22T22:06:31.841Z,7.80
2019-02-22T22:10:37.233Z,7.70
2019-02-22T22:14:42.780Z,7.70
2019-02-22T22:18:48.499Z,7.70
2019-02-22T22:22:53.853Z,7.60
2019-02-22T22:26:59.353Z,7.60
2019-02-22T22:31:04.857Z,7.50
2019-02-22T22:35:11.343Z,7.50
2019-02-22T22:39:16.782Z,7.40
2019-02-22T22:43:22.243Z,7.40
2019-02-22T22:47:29.467Z,7.30
2019-02-22T22:51:34.835Z,7.20
2019-02-22T22:55:40.875Z,7.10
2019-02-22T22:59:46.683Z,7.10
2019-02-22T23:03:53.308Z,7.10
2019-02-22T23:07:58.741Z,7.00
2019-02-22T23:12:04.861Z,6.90
2019-02-22T23:16:10.312Z,6.80
2019-02-22T23:20:16.063Z,6.80
2019-02-22T23:24:21.745Z,6.70
2019-02-22T23:28:27.288Z,6.80
2019-02-22T23:32:32.833Z,6.70
2019-02-22T23:36:38.491Z,6.60
2019-02-22T23:40:44.001Z,6.60
2019-02-22T23:44:49.725Z,6.60
2019-02-22T23:48:55.456Z,6.50
2019-02-22T23:53:00.906Z,6.50
2019-02-22T23:57:06.845Z,6.50
